createdAt,value
2018-12-22T00:00:44.258Z,76.68
2018-12-22T00:01:50.552Z,76.20
2018-12-22T00:02:56.825Z,76.20
2018-12-22T00:04:03.135Z,76.15
2018-12-22T00:05:09.112Z,75.85
2018-12-22T00:06:15.455Z,75.76
2018-12-22T00:07:21.755Z,75.94
2018-12-22T00:08:28.022Z,76.24
2018-12-22T00:09:34.442Z,75.60
2018-12-22T00:10:40.746Z,74.96
2018-12-22T00:11:47.021Z,75.17
2018-12-22T00:12:53.336Z,75.78
2018-12-22T00:13:59.636Z,75.06
2018-12-22T00:15:05.568Z,74.74
2018-12-22T00:16:11.906Z,75.16
2018-12-22T00:17:18.163Z,75.67
2018-12-22T00:18:24.464Z,75.16
2018-12-22T00:19:30.748Z,75.24
2018-12-22T00:20:37.038Z,75.13
2018-12-22T00:21:43.000Z,75.06
2018-12-22T00:22:49.259Z,74.51
2018-12-22T00:23:55.519Z,74.95
2018-12-22T00:25:01.846Z,74.87
2018-12-22T00:26:07.793Z,75.08
2018-12-22T00:27:14.065Z,74.83
2018-12-22T00:28:22.335Z,74.58
2018-12-22T00:29:26.499Z,74.67
2018-12-22T00:30:32.747Z,75.14
2018-12-22T00:31:39.087Z,76.04
2018-12-22T00:32:45.413Z,75.86
2018-12-22T00:33:51.690Z,74.73
2018-12-22T00:34:57.966Z,74.85
2018-12-22T00:36:04.268Z,74.09
2018-12-22T00:37:10.554Z,74.97
2018-12-22T00:38:16.901Z,75.99
2018-12-22T00:39:23.200Z,75.93
2018-12-22T00:40:29.529Z,75.05
2018-12-22T00:41:35.861Z,75.12
2018-12-22T00:42:42.148Z,75.02
2018-12-22T00:43:48.481Z,75.06
2018-12-22T00:44:54.794Z,74.98
2018-12-22T00:46:01.170Z,74.53
2018-12-22T00:47:07.501Z,74.26
2018-12-22T00:48:13.819Z,74.52
2018-12-22T00:49:20.081Z,75.12
2018-12-22T00:50:26.370Z,75.55
2018-12-22T00:51:32.685Z,75.34
2018-12-22T00:52:38.996Z,75.48
2018-12-22T00:53:45.268Z,75.01
2018-12-22T00:54:51.568Z,75.00
2018-12-22T00:55:58.421Z,75.06
2018-12-22T00:57:04.750Z,75.08
2018-12-22T00:58:11.003Z,75.02
2018-12-22T00:59:17.287Z,74.79
2018-12-22T01:00:23.583Z,75.54
2018-12-22T01:01:29.911Z,75.04
2018-12-22T01:02:36.224Z,75.69
2018-12-22T01:03:42.535Z,75.93
2018-12-22T01:04:48.804Z,75.21
2018-12-22T01:05:55.124Z,74.38
2018-12-22T01:07:01.437Z,74.32
2018-12-22T01:08:07.729Z,75.25
2018-12-22T01:09:14.004Z,74.74
2018-12-22T01:10:20.019Z,74.55
2018-12-22T01:11:26.367Z,73.84
2018-12-22T01:12:32.684Z,73.92
2018-12-22T01:13:38.648Z,74.03
2018-12-22T01:14:44.949Z,74.21
2018-12-22T01:15:51.235Z,74.33
2018-12-22T01:16:57.614Z,74.72
2018-12-22T01:18:03.951Z,74.11
2018-12-22T01:19:10.242Z,74.66
2018-12-22T01:20:16.521Z,73.80
2018-12-22T01:21:22.916Z,73.38
2018-12-22T01:22:29.249Z,72.70
2018-12-22T01:23:35.534Z,72.38
2018-12-22T01:24:41.834Z,72.90
2018-12-22T01:25:48.094Z,73.08
2018-12-22T01:26:54.385Z,74.03
2018-12-22T01:28:00.680Z,73.85
2018-12-22T01:29:06.940Z,74.19
2018-12-22T01:30:13.226Z,73.79
2018-12-22T01:31:19.503Z,74.41
2018-12-22T01:32:25.801Z,74.79
2018-12-22T01:33:32.045Z,75.41
2018-12-22T01:34:38.312Z,75.65
2018-12-22T01:35:44.602Z,75.49
2018-12-22T01:36:50.903Z,75.38
2018-12-22T01:37:57.206Z,74.91
2018-12-22T01:39:03.095Z,75.15
2018-12-22T01:40:09.375Z,75.42
2018-12-22T01:41:15.700Z,76.64
2018-12-22T01:42:22.230Z,77.06
2018-12-22T01:43:28.573Z,77.48
2018-12-22T01:44:34.837Z,78.79
2018-12-22T01:45:41.120Z,78.55
2018-12-22T01:46:47.414Z,79.07
2018-12-22T01:47:53.711Z,78.78
2018-12-22T01:49:00.009Z,79.96
2018-12-22T01:50:05.610Z,80.43
2018-12-22T01:51:11.948Z,80.56
2018-12-22T01:52:17.915Z,80.51
2018-12-22T01:53:24.214Z,80.84
2018-12-22T01:54:30.488Z,81.23
2018-12-22T01:55:36.792Z,82.41
2018-12-22T01:56:43.090Z,83.74
2018-12-22T01:57:49.379Z,85.52
2018-12-22T01:58:56.532Z,86.27
2018-12-22T02:00:02.452Z,86.96
2018-12-22T02:01:08.771Z,88.62
2018-12-22T02:02:14.039Z,90.71
2018-12-22T02:03:19.295Z,92.49
2018-12-22T02:04:24.557Z,93.06
2018-12-22T02:05:30.856Z,94.86
2018-12-22T02:06:37.239Z,95.16
2018-12-22T02:07:43.536Z,95.70
2018-12-22T02:08:49.797Z,97.09
2018-12-22T02:09:56.088Z,98.49
2018-12-22T02:11:02.425Z,99.29
2018-12-22T02:12:08.771Z,99.85
2018-12-22T02:13:15.070Z,98.91
2018-12-22T02:14:21.380Z,99.25
2018-12-22T02:15:27.652Z,99.10
2018-12-22T02:16:33.932Z,98.72
2018-12-22T02:17:40.230Z,98.58
2018-12-22T02:18:46.176Z,98.50
2018-12-22T02:19:52.444Z,97.92
2018-12-22T02:20:58.732Z,97.75
2018-12-22T02:22:05.053Z,98.03
2018-12-22T02:23:11.298Z,97.17
2018-12-22T02:24:17.570Z,97.07
2018-12-22T02:25:23.840Z,96.89
2018-12-22T02:26:30.249Z,97.20
2018-12-22T02:27:35.836Z,97.38
2018-12-22T02:28:42.101Z,97.69
2018-12-22T02:29:48.340Z,96.89
2018-12-22T02:30:54.631Z,96.58
2018-12-22T02:32:00.958Z,96.22
2018-12-22T02:33:07.208Z,97.18
2018-12-22T02:34:13.461Z,97.54
2018-12-22T02:35:19.764Z,97.44
2018-12-22T02:36:26.071Z,96.68
2018-12-22T02:37:32.414Z,96.06
2018-12-22T02:38:38.392Z,96.52
2018-12-22T02:39:44.727Z,96.34
2018-12-22T02:40:51.025Z,96.86
2018-12-22T02:41:57.314Z,96.52
2018-12-22T02:43:03.621Z,96.77
2018-12-22T02:44:09.924Z,96.10
2018-12-22T02:45:16.243Z,96.34
2018-12-22T02:46:22.544Z,95.89
2018-12-22T02:47:28.816Z,95.05
2018-12-22T02:48:35.113Z,95.23
2018-12-22T02:49:41.118Z,94.81
2018-12-22T02:50:47.520Z,95.84
2018-12-22T02:51:54.071Z,95.47
2018-12-22T02:53:00.403Z,95.29
2018-12-22T02:54:06.764Z,95.45
2018-12-22T02:55:13.112Z,95.32
2018-12-22T02:56:19.471Z,95.04
2018-12-22T02:57:25.835Z,95.13
2018-12-22T02:58:32.228Z,95.16
2018-12-22T02:59:38.521Z,94.24
2018-12-22T03:00:44.832Z,94.42
2018-12-22T03:01:51.142Z,94.08
2018-12-22T03:02:57.463Z,94.59
2018-12-22T03:04:03.792Z,95.63
2018-12-22T03:05:10.125Z,95.28
2018-12-22T03:06:16.480Z,94.26
2018-12-22T03:07:23.399Z,95.07
2018-12-22T03:08:29.706Z,95.51
2018-12-22T03:09:36.004Z,94.46
2018-12-22T03:10:42.303Z,93.88
2018-12-22T03:11:48.315Z,94.00
2018-12-22T03:12:54.659Z,95.12
2018-12-22T03:14:01.352Z,95.95
2018-12-22T03:15:07.339Z,95.63
2018-12-22T03:16:13.673Z,95.75
2018-12-22T03:17:20.028Z,95.26
2018-12-22T03:18:26.374Z,94.76
2018-12-22T03:19:32.756Z,94.41
2018-12-22T03:20:39.030Z,95.01
2018-12-22T03:21:45.341Z,94.59
2018-12-22T03:22:51.644Z,94.48
2018-12-22T03:23:57.962Z,94.18
2018-12-22T03:25:03.867Z,94.07
2018-12-22T03:26:10.182Z,94.85
2018-12-22T03:27:16.459Z,94.39
2018-12-22T03:28:22.821Z,94.30
2018-12-22T03:29:30.329Z,94.74
2018-12-22T03:30:36.627Z,95.23
2018-12-22T03:31:43.070Z,95.57
2018-12-22T03:32:49.247Z,95.29
2018-12-22T03:33:55.522Z,94.36
2018-12-22T03:35:01.830Z,94.23
2018-12-22T03:36:08.159Z,95.27
2018-12-22T03:37:14.470Z,95.36
2018-12-22T03:38:20.859Z,95.42
2018-12-22T03:39:27.228Z,95.49
2018-12-22T03:40:33.063Z,95.47
2018-12-22T03:41:39.374Z,95.04
2018-12-22T03:42:45.675Z,95.31
2018-12-22T03:43:51.961Z,95.74
2018-12-22T03:44:58.293Z,95.71
2018-12-22T03:46:04.566Z,95.50
2018-12-22T03:47:10.892Z,96.23
2018-12-22T03:48:17.183Z,96.08
2018-12-22T03:49:23.509Z,95.50
2018-12-22T03:50:29.848Z,95.25
2018-12-22T03:51:36.157Z,95.22
2018-12-22T03:52:42.486Z,95.30
2018-12-22T03:53:48.805Z,95.63
2018-12-22T03:54:55.098Z,95.53
2018-12-22T03:56:01.387Z,95.00
2018-12-22T03:57:07.666Z,94.63
2018-12-22T03:58:13.951Z,94.47
2018-12-22T03:59:24.810Z,94.24
2018-12-22T04:00:26.609Z,94.33
2018-12-22T04:01:32.906Z,94.36
2018-12-22T04:02:39.254Z,94.96
2018-12-22T04:03:45.547Z,94.57
2018-12-22T04:04:51.857Z,94.13
2018-12-22T04:05:58.164Z,94.51
2018-12-22T04:07:04.127Z,94.46
2018-12-22T04:08:10.467Z,95.18
2018-12-22T04:09:16.820Z,94.61
2018-12-22T04:10:23.080Z,93.69
2018-12-22T04:11:29.394Z,93.83
2018-12-22T04:12:35.682Z,93.87
2018-12-22T04:13:41.943Z,94.21
2018-12-22T04:14:48.227Z,94.45
2018-12-22T04:15:54.541Z,93.79
2018-12-22T04:17:00.911Z,93.81
2018-12-22T04:18:07.248Z,93.80
2018-12-22T04:19:13.513Z,93.70
2018-12-22T04:20:19.778Z,94.37
2018-12-22T04:21:26.107Z,95.01
2018-12-22T04:22:32.410Z,94.56
2018-12-22T04:23:38.729Z,93.42
2018-12-22T04:24:44.624Z,93.78
2018-12-22T04:25:50.889Z,94.07
2018-12-22T04:26:57.184Z,94.63
2018-12-22T04:28:03.182Z,94.56
2018-12-22T04:29:09.905Z,94.66
2018-12-22T04:30:16.226Z,94.47
2018-12-22T04:31:22.588Z,95.12
2018-12-22T04:32:28.974Z,95.77
2018-12-22T04:33:35.295Z,95.57
2018-12-22T04:34:41.584Z,95.85
2018-12-22T04:35:47.869Z,95.09
2018-12-22T04:36:54.176Z,95.16
2018-12-22T04:38:00.536Z,95.20
2018-12-22T04:39:06.216Z,94.60
2018-12-22T04:40:12.527Z,94.57
2018-12-22T04:41:18.834Z,95.08
2018-12-22T04:42:25.182Z,94.59
2018-12-22T04:43:31.638Z,94.79
2018-12-22T04:44:37.907Z,95.01
2018-12-22T04:45:44.226Z,94.89
2018-12-22T04:46:50.555Z,94.66
2018-12-22T04:47:56.856Z,94.52
2018-12-22T04:49:03.169Z,94.36
2018-12-22T04:50:09.489Z,94.23
2018-12-22T04:51:15.536Z,94.10
2018-12-22T04:52:22.022Z,94.42
2018-12-22T04:53:28.518Z,94.06
2018-12-22T04:54:34.831Z,94.85
2018-12-22T04:55:41.124Z,94.59
2018-12-22T04:56:47.428Z,94.72
2018-12-22T04:57:53.716Z,93.92
2018-12-22T04:59:00.099Z,94.01
2018-12-22T05:00:05.697Z,94.47
2018-12-22T05:01:12.039Z,94.72
2018-12-22T05:02:18.452Z,95.44
2018-12-22T05:03:24.816Z,95.46
2018-12-22T05:04:31.255Z,95.98
2018-12-22T05:05:37.529Z,95.91
2018-12-22T05:06:43.830Z,96.00
2018-12-22T05:07:50.178Z,96.47
2018-12-22T05:08:56.832Z,95.73
2018-12-22T05:10:03.359Z,94.83
2018-12-22T05:11:09.844Z,95.34
2018-12-22T05:12:16.532Z,95.82
2018-12-22T05:13:22.884Z,96.37
2018-12-22T05:14:29.217Z,96.52
2018-12-22T05:15:36.462Z,96.11
2018-12-22T05:16:42.820Z,96.26
2018-12-22T05:17:49.110Z,96.69
2018-12-22T05:18:55.360Z,96.58
2018-12-22T05:20:01.647Z,97.10
2018-12-22T05:21:07.978Z,97.09
2018-12-22T05:22:13.984Z,96.47
2018-12-22T05:23:20.287Z,96.14
2018-12-22T05:24:26.611Z,95.86
2018-12-22T05:25:32.929Z,95.39
2018-12-22T05:26:39.249Z,94.86
2018-12-22T05:27:45.536Z,95.04
2018-12-22T05:28:51.816Z,94.82
2018-12-22T05:29:58.118Z,94.84
2018-12-22T05:31:04.504Z,95.05
2018-12-22T05:32:11.819Z,95.09
2018-12-22T05:33:18.449Z,96.01
2018-12-22T05:34:24.804Z,96.26
2018-12-22T05:35:31.157Z,95.80
2018-12-22T05:36:37.472Z,95.88
2018-12-22T05:37:43.810Z,95.58
2018-12-22T05:38:50.167Z,95.94
2018-12-22T05:39:56.483Z,96.34
2018-12-22T05:41:02.756Z,97.10
2018-12-22T05:42:09.062Z,97.26
2018-12-22T05:43:15.417Z,96.71
2018-12-22T05:44:21.734Z,96.06
2018-12-22T05:45:28.015Z,96.06
2018-12-22T05:46:34.300Z,96.33
2018-12-22T05:47:40.625Z,96.52
2018-12-22T05:48:47.448Z,95.96
2018-12-22T05:49:53.911Z,96.35
2018-12-22T05:51:00.560Z,96.39
2018-12-22T05:52:06.872Z,97.16
2018-12-22T05:53:13.159Z,97.41
2018-12-22T05:54:19.403Z,96.96
2018-12-22T05:55:25.461Z,97.58
2018-12-22T05:56:32.740Z,97.88
2018-12-22T05:57:39.085Z,96.84
2018-12-22T05:58:45.450Z,96.90
2018-12-22T06:00:00.196Z,97.80
2018-12-22T06:00:58.124Z,98.65
2018-12-22T06:02:04.784Z,99.24
2018-12-22T06:03:11.238Z,98.17
2018-12-22T06:04:17.577Z,97.69
2018-12-22T06:05:23.960Z,97.76
2018-12-22T06:06:30.384Z,97.93
2018-12-22T06:07:36.738Z,97.43
2018-12-22T06:08:43.087Z,97.63
2018-12-22T06:09:49.445Z,97.28
2018-12-22T06:10:55.756Z,97.28
2018-12-22T06:12:02.132Z,97.56
2018-12-22T06:13:08.508Z,96.73
2018-12-22T06:14:14.827Z,97.17
2018-12-22T06:15:21.179Z,96.84
2018-12-22T06:16:27.489Z,96.72
2018-12-22T06:17:33.986Z,97.46
2018-12-22T06:18:40.204Z,97.76
2018-12-22T06:19:46.562Z,97.55
2018-12-22T06:20:52.957Z,96.50
2018-12-22T06:21:59.552Z,96.14
2018-12-22T06:23:06.489Z,97.25
2018-12-22T06:24:12.832Z,97.10
2018-12-22T06:25:19.208Z,97.57
2018-12-22T06:26:26.479Z,97.37
2018-12-22T06:27:32.850Z,97.15
2018-12-22T06:28:39.181Z,96.79
2018-12-22T06:29:45.467Z,97.88
2018-12-22T06:30:51.836Z,97.40
2018-12-22T06:31:58.758Z,97.74
2018-12-22T06:33:05.112Z,97.79
2018-12-22T06:34:11.432Z,98.37
2018-12-22T06:35:17.748Z,98.78
2018-12-22T06:36:24.269Z,99.22
2018-12-22T06:37:30.598Z,99.76
2018-12-22T06:38:37.301Z,98.95
2018-12-22T06:39:44.336Z,98.91
2018-12-22T06:40:51.274Z,99.33
2018-12-22T06:41:59.031Z,98.69
2018-12-22T06:43:05.977Z,98.44
2018-12-22T06:44:16.207Z,99.45
2018-12-22T06:45:23.713Z,100.00
2018-12-22T06:46:30.519Z,100.00
2018-12-22T06:47:38.169Z,100.00
2018-12-22T06:48:45.049Z,99.75
2018-12-22T06:49:51.364Z,98.96
2018-12-22T06:50:57.665Z,99.12
2018-12-22T06:52:03.980Z,99.75
2018-12-22T06:53:10.281Z,100.00
2018-12-22T06:54:16.614Z,100.00
2018-12-22T06:55:22.888Z,99.61
2018-12-22T06:56:29.242Z,99.02
2018-12-22T06:57:35.592Z,98.92
2018-12-22T06:58:41.918Z,98.98
2018-12-22T06:59:48.222Z,99.81
2018-12-22T07:00:54.580Z,100.00
2018-12-22T07:02:01.256Z,100.00
2018-12-22T07:03:07.646Z,100.00
2018-12-22T07:04:13.905Z,100.00
2018-12-22T07:05:20.204Z,100.00
2018-12-22T07:06:26.468Z,100.00
2018-12-22T07:07:32.769Z,100.00
2018-12-22T07:08:39.070Z,100.00
2018-12-22T07:09:45.425Z,100.00
2018-12-22T07:10:51.757Z,100.00
2018-12-22T07:11:58.128Z,100.00
2018-12-22T07:13:04.440Z,100.00
2018-12-22T07:14:10.721Z,100.00
2018-12-22T07:15:17.025Z,100.00
2018-12-22T07:16:23.292Z,100.00
2018-12-22T07:17:29.609Z,100.00
2018-12-22T07:18:36.060Z,100.00
2018-12-22T07:19:42.363Z,100.00
2018-12-22T07:20:48.762Z,100.00
2018-12-22T07:21:55.072Z,100.00
2018-12-22T07:23:01.427Z,100.00
2018-12-22T07:24:07.458Z,100.00
2018-12-22T07:25:13.792Z,100.00
2018-12-22T07:26:20.064Z,100.00
2018-12-22T07:27:26.377Z,100.00
2018-12-22T07:28:32.724Z,100.00
2018-12-22T07:29:39.000Z,100.00
2018-12-22T07:30:45.284Z,100.00
2018-12-22T07:31:51.606Z,100.00
2018-12-22T07:32:57.990Z,100.00
2018-12-22T07:34:04.298Z,100.00
2018-12-22T07:35:10.620Z,100.00
2018-12-22T07:36:16.539Z,100.00
2018-12-22T07:37:22.861Z,100.00
2018-12-22T07:38:29.194Z,100.00
2018-12-22T07:39:35.470Z,100.00
2018-12-22T07:40:41.816Z,100.00
2018-12-22T07:41:48.553Z,100.00
2018-12-22T07:42:59.247Z,100.00
2018-12-22T07:44:07.292Z,100.00
2018-12-22T07:45:14.787Z,100.00
2018-12-22T07:46:22.207Z,100.00
2018-12-22T07:47:30.654Z,100.00
2018-12-22T07:48:37.626Z,100.00
2018-12-22T07:49:45.429Z,100.00
2018-12-22T07:50:52.687Z,100.00
2018-12-22T07:52:00.291Z,100.00
2018-12-22T07:53:07.734Z,100.00
2018-12-22T07:54:15.054Z,100.00
2018-12-22T07:55:23.045Z,100.00
2018-12-22T07:56:30.451Z,100.00
2018-12-22T07:57:39.026Z,100.00
2018-12-22T07:58:46.372Z,100.00
2018-12-22T07:59:53.886Z,100.00
2018-12-22T08:01:01.414Z,100.00
2018-12-22T08:02:09.053Z,100.00
2018-12-22T08:03:16.625Z,100.00
2018-12-22T08:04:23.931Z,100.00
2018-12-22T08:05:38.719Z,100.00
2018-12-22T08:06:41.198Z,100.00
2018-12-22T08:07:49.621Z,100.00
2018-12-22T08:08:56.822Z,100.00
2018-12-22T08:10:04.450Z,100.00
2018-12-22T08:11:11.922Z,100.00
2018-12-22T08:12:19.461Z,100.00
2018-12-22T08:13:28.308Z,100.00
2018-12-22T08:14:36.456Z,100.00
2018-12-22T08:15:43.922Z,100.00
2018-12-22T08:16:52.504Z,100.00
2018-12-22T08:18:00.152Z,100.00
2018-12-22T08:19:07.665Z,100.00
2018-12-22T08:20:14.838Z,100.00
2018-12-22T08:21:22.233Z,100.00
2018-12-22T08:22:30.505Z,100.00
2018-12-22T08:23:38.116Z,100.00
2018-12-22T08:24:45.530Z,100.00
2018-12-22T08:25:53.226Z,100.00
2018-12-22T08:27:00.803Z,100.00
2018-12-22T08:28:08.896Z,100.00
2018-12-22T08:29:17.211Z,100.00
2018-12-22T08:30:24.589Z,100.00
2018-12-22T08:31:31.815Z,100.00
2018-12-22T08:32:39.848Z,100.00
2018-12-22T08:33:48.277Z,100.00
2018-12-22T08:34:56.360Z,100.00
2018-12-22T08:36:03.819Z,100.00
2018-12-22T08:37:11.222Z,100.00
2018-12-22T08:38:18.796Z,100.00
2018-12-22T08:39:26.665Z,100.00
2018-12-22T08:40:34.173Z,100.00
2018-12-22T08:41:41.550Z,100.00
2018-12-22T08:42:49.880Z,100.00
2018-12-22T08:43:58.629Z,100.00
2018-12-22T08:45:05.945Z,100.00
2018-12-22T08:46:14.233Z,100.00
2018-12-22T09:49:03.933Z,100.00
2018-12-22T09:50:09.793Z,100.00
2018-12-22T09:51:16.143Z,100.00
2018-12-22T09:52:22.449Z,100.00
2018-12-22T09:53:28.825Z,100.00
2018-12-22T09:54:35.122Z,100.00
2018-12-22T09:55:41.444Z,100.00
2018-12-22T09:56:47.744Z,100.00
2018-12-22T09:57:54.079Z,100.00
2018-12-22T09:59:00.440Z,100.00
2018-12-22T10:00:06.090Z,100.00
2018-12-22T10:01:12.380Z,100.00
2018-12-22T10:02:18.705Z,100.00
2018-12-22T10:03:25.130Z,100.00
2018-12-22T10:04:31.516Z,100.00
2018-12-22T10:05:37.685Z,100.00
2018-12-22T10:06:44.023Z,100.00
2018-12-22T10:07:50.388Z,100.00
2018-12-22T10:08:56.746Z,100.00
2018-12-22T10:10:02.678Z,100.00
2018-12-22T10:11:08.383Z,100.00
2018-12-22T10:12:14.760Z,100.00
2018-12-22T10:13:21.126Z,100.00
2018-12-22T10:14:27.437Z,100.00
2018-12-22T10:15:33.797Z,100.00
2018-12-22T10:16:40.268Z,100.00
2018-12-22T10:17:49.103Z,100.00
2018-12-22T10:18:55.900Z,100.00
2018-12-22T10:20:02.265Z,100.00
2018-12-22T10:21:08.677Z,100.00
2018-12-22T10:22:15.887Z,100.00
2018-12-22T10:23:22.234Z,100.00
2018-12-22T10:24:28.905Z,100.00
2018-12-22T10:25:35.387Z,100.00
2018-12-22T10:26:41.862Z,100.00
2018-12-22T10:27:48.187Z,100.00
2018-12-22T10:28:54.726Z,100.00
2018-12-22T10:30:01.339Z,100.00
2018-12-22T10:31:07.957Z,100.00
2018-12-22T10:32:14.313Z,100.00
2018-12-22T10:33:20.690Z,100.00
2018-12-22T10:34:26.677Z,100.00
2018-12-22T10:35:32.744Z,100.00
2018-12-22T10:36:39.115Z,100.00
2018-12-22T10:37:45.529Z,100.00
2018-12-22T10:38:51.903Z,100.00
2018-12-22T10:39:58.234Z,100.00
2018-12-22T10:41:04.648Z,100.00
2018-12-22T10:42:11.064Z,100.00
2018-12-22T10:43:17.381Z,100.00
2018-12-22T10:44:23.738Z,100.00
2018-12-22T10:45:30.035Z,100.00
2018-12-22T10:46:36.460Z,100.00
2018-12-22T10:47:42.819Z,100.00
2018-12-22T10:48:49.263Z,100.00
2018-12-22T10:49:55.651Z,100.00
2018-12-22T10:51:02.683Z,100.00
2018-12-22T10:52:09.462Z,100.00
2018-12-22T10:53:16.385Z,100.00
2018-12-22T10:54:24.618Z,100.00
2018-12-22T10:55:32.292Z,100.00
2018-12-22T10:56:41.351Z,100.00
2018-12-22T10:57:48.815Z,100.00
2018-12-22T10:58:56.563Z,100.00
2018-12-22T11:00:03.644Z,100.00
2018-12-22T11:01:12.988Z,100.00
2018-12-22T11:02:20.288Z,100.00
2018-12-22T11:03:27.802Z,100.00
2018-12-22T11:04:35.761Z,100.00
2018-12-22T11:05:44.299Z,100.00
2018-12-22T11:06:51.630Z,100.00
2018-12-22T11:07:59.396Z,100.00
2018-12-22T11:09:06.125Z,100.00
2018-12-22T11:10:14.382Z,100.00
2018-12-22T11:11:21.542Z,100.00
2018-12-22T11:12:28.797Z,100.00
2018-12-22T11:13:36.743Z,100.00
2018-12-22T11:14:44.123Z,100.00
2018-12-22T11:15:51.705Z,100.00
2018-12-22T11:16:59.020Z,100.00
2018-12-22T11:18:06.573Z,100.00
2018-12-22T11:19:13.948Z,100.00
2018-12-22T11:20:22.746Z,100.00
2018-12-22T11:21:30.191Z,100.00
2018-12-22T11:22:37.774Z,100.00
2018-12-22T11:23:45.351Z,100.00
2018-12-22T11:24:53.578Z,100.00
2018-12-22T11:26:01.462Z,100.00
2018-12-22T11:27:09.270Z,100.00
2018-12-22T11:28:16.583Z,100.00
2018-12-22T11:29:24.215Z,100.00
2018-12-22T11:30:32.830Z,100.00
2018-12-22T11:31:40.944Z,100.00
2018-12-22T11:32:48.673Z,100.00
2018-12-22T11:33:56.177Z,100.00
2018-12-22T11:35:03.709Z,100.00
2018-12-22T11:36:10.969Z,100.00
2018-12-22T11:37:19.853Z,100.00
2018-12-22T11:38:27.740Z,100.00
2018-12-22T11:39:36.295Z,100.00
2018-12-22T11:40:43.722Z,100.00
2018-12-22T11:41:51.041Z,100.00
2018-12-22T11:42:58.287Z,100.00
2018-12-22T11:44:06.482Z,100.00
2018-12-22T11:45:13.896Z,100.00
2018-12-22T11:46:21.412Z,100.00
2018-12-22T11:47:30.129Z,100.00
2018-12-22T11:48:37.593Z,100.00
2018-12-22T11:49:46.411Z,100.00
2018-12-22T11:50:53.755Z,100.00
2018-12-22T11:52:02.085Z,100.00
2018-12-22T11:53:09.435Z,100.00
2018-12-22T11:54:17.036Z,100.00
2018-12-22T11:55:24.259Z,100.00
2018-12-22T11:56:32.927Z,100.00
2018-12-22T11:57:40.372Z,100.00
2018-12-22T11:58:47.836Z,100.00
2018-12-22T11:59:55.166Z,100.00
2018-12-22T12:01:02.484Z,100.00
2018-12-22T12:02:10.096Z,100.00
2018-12-22T12:03:16.439Z,100.00
2018-12-22T12:04:24.075Z,100.00
2018-12-22T12:05:33.105Z,100.00
2018-12-22T12:06:41.506Z,100.00
2018-12-22T12:07:48.961Z,100.00
2018-12-22T12:08:55.838Z,100.00
2018-12-22T12:10:02.237Z,100.00
2018-12-22T12:11:08.625Z,100.00
2018-12-22T12:12:14.649Z,100.00
2018-12-22T12:13:21.022Z,100.00
2018-12-22T12:14:26.761Z,100.00
2018-12-22T12:15:32.486Z,100.00
2018-12-22T12:16:38.566Z,100.00
2018-12-22T12:18:01.182Z,100.00
2018-12-22T12:19:07.978Z,100.00
2018-12-22T12:20:14.414Z,100.00
2018-12-22T12:21:20.769Z,100.00
2018-12-22T12:22:27.164Z,100.00
2018-12-22T12:23:33.574Z,100.00
2018-12-22T12:24:39.973Z,100.00
2018-12-22T12:25:46.323Z,100.00
2018-12-22T12:26:52.288Z,100.00
2018-12-22T12:27:58.701Z,100.00
2018-12-22T12:29:05.115Z,100.00
2018-12-22T12:30:11.059Z,100.00
2018-12-22T12:31:17.454Z,100.00
2018-12-22T12:32:23.843Z,100.00
2018-12-22T12:33:30.233Z,100.00
2018-12-22T12:34:36.671Z,100.00
2018-12-22T12:35:43.164Z,100.00
2018-12-22T12:36:49.472Z,100.00
2018-12-22T12:37:55.842Z,100.00
2018-12-22T12:39:02.249Z,100.00
2018-12-22T12:40:07.859Z,100.00
2018-12-22T12:41:14.207Z,100.00
2018-12-22T12:42:20.548Z,100.00
2018-12-22T12:43:26.935Z,100.00
2018-12-22T12:44:33.349Z,100.00
2018-12-22T12:45:38.973Z,100.00
2018-12-22T12:46:45.284Z,100.00
2018-12-22T12:47:51.693Z,100.00
2018-12-22T12:48:58.108Z,100.00
2018-12-22T12:50:03.859Z,100.00
2018-12-22T12:51:10.252Z,100.00
2018-12-22T12:52:16.616Z,100.00
2018-12-22T12:53:22.569Z,100.00
2018-12-22T12:54:29.002Z,100.00
2018-12-22T12:55:35.315Z,100.00
2018-12-22T12:56:41.261Z,100.00
2018-12-22T12:57:47.597Z,100.00
2018-12-22T12:58:53.913Z,100.00
2018-12-22T13:00:00.302Z,100.00
2018-12-22T13:01:06.616Z,100.00
2018-12-22T13:02:12.952Z,100.00
2018-12-22T13:03:19.271Z,100.00
2018-12-22T13:04:25.618Z,100.00
2018-12-22T13:05:31.990Z,100.00
2018-12-22T13:06:38.361Z,100.00
2018-12-22T13:07:45.277Z,100.00
2018-12-22T13:08:51.643Z,100.00
2018-12-22T13:09:58.402Z,100.00
2018-12-22T13:11:04.407Z,100.00
2018-12-22T13:12:10.345Z,100.00
2018-12-22T13:13:18.584Z,100.00
2018-12-22T13:14:24.964Z,100.00
2018-12-22T13:15:31.332Z,100.00
2018-12-22T13:16:37.663Z,100.00
2018-12-22T13:17:43.951Z,100.00
2018-12-22T13:18:50.275Z,100.00
2018-12-22T13:19:56.706Z,100.00
2018-12-22T13:21:02.489Z,100.00
2018-12-22T13:22:08.825Z,100.00
2018-12-22T13:23:15.162Z,100.00
2018-12-22T13:24:21.549Z,100.00
2018-12-22T13:25:27.838Z,100.00
2018-12-22T13:26:36.846Z,100.00
2018-12-22T13:27:40.474Z,100.00
2018-12-22T13:28:46.808Z,100.00
2018-12-22T13:29:53.150Z,100.00
2018-12-22T13:30:59.472Z,100.00
2018-12-22T13:32:09.468Z,100.00
2018-12-22T13:33:12.240Z,100.00
2018-12-22T13:34:18.603Z,100.00
2018-12-22T13:35:24.914Z,100.00
2018-12-22T13:36:34.823Z,100.00
2018-12-22T13:37:37.602Z,100.00
2018-12-22T13:38:43.228Z,100.00
2018-12-22T13:39:49.638Z,100.00
2018-12-22T13:40:55.940Z,100.00
2018-12-22T13:42:02.269Z,100.00
2018-12-22T13:43:08.636Z,100.00
2018-12-22T13:44:14.909Z,100.00
2018-12-22T13:45:21.281Z,100.00
2018-12-22T13:46:27.594Z,100.00
2018-12-22T13:47:34.262Z,100.00
2018-12-22T13:48:40.077Z,100.00
2018-12-22T13:49:46.649Z,100.00
2018-12-22T13:50:53.040Z,100.00
2018-12-22T13:51:59.094Z,100.00
2018-12-22T13:53:05.445Z,100.00
2018-12-22T13:54:11.795Z,100.00
2018-12-22T13:55:18.172Z,100.00
2018-12-22T13:56:24.479Z,100.00
2018-12-22T13:57:30.804Z,100.00
2018-12-22T13:58:37.572Z,100.00
2018-12-22T13:59:43.573Z,100.00
2018-12-22T14:00:49.884Z,100.00
2018-12-22T14:01:55.921Z,100.00
2018-12-22T14:03:02.172Z,100.00
2018-12-22T14:04:08.907Z,100.00
2018-12-22T14:05:23.394Z,100.00
2018-12-22T14:06:29.809Z,100.00
2018-12-22T14:07:36.232Z,100.00
2018-12-22T14:08:42.659Z,100.00
2018-12-22T14:09:49.053Z,100.00
2018-12-22T14:10:55.339Z,100.00
2018-12-22T14:12:02.390Z,100.00
2018-12-22T14:13:10.070Z,100.00
2018-12-22T14:14:18.331Z,100.00
2018-12-22T14:15:23.497Z,100.00
2018-12-22T14:16:29.116Z,100.00
2018-12-22T14:17:34.746Z,100.00
2018-12-22T14:18:40.389Z,100.00
2018-12-22T14:19:46.835Z,100.00
2018-12-22T14:20:56.766Z,100.00
2018-12-22T14:22:04.094Z,100.00
2018-12-22T14:23:11.465Z,100.00
2018-12-22T14:24:18.138Z,100.00
2018-12-22T14:25:24.695Z,100.00
2018-12-22T14:26:31.062Z,100.00
2018-12-22T14:27:37.621Z,100.00
2018-12-22T14:28:45.224Z,100.00
2018-12-22T14:29:52.001Z,100.00
2018-12-22T14:30:58.301Z,100.00
2018-12-22T14:32:04.642Z,100.00
2018-12-22T14:33:10.985Z,100.00
2018-12-22T14:34:16.593Z,100.00
2018-12-22T14:35:22.286Z,100.00
2018-12-22T14:36:28.617Z,100.00
2018-12-22T14:37:34.941Z,100.00
2018-12-22T14:38:41.258Z,100.00
2018-12-22T14:39:47.651Z,100.00
2018-12-22T14:40:53.965Z,100.00
2018-12-22T14:42:00.261Z,100.00
2018-12-22T14:43:06.572Z,100.00
2018-12-22T14:44:12.880Z,100.00
2018-12-22T14:45:19.265Z,100.00
2018-12-22T14:46:25.580Z,100.00
2018-12-22T14:47:33.145Z,100.00
2018-12-22T14:48:39.484Z,100.00
2018-12-22T14:49:45.859Z,100.00
2018-12-22T14:50:52.217Z,100.00
2018-12-22T14:51:58.509Z,100.00
2018-12-22T14:53:04.857Z,100.00
2018-12-22T14:54:11.170Z,100.00
2018-12-22T14:55:17.523Z,100.00
2018-12-22T14:56:28.499Z,100.00
2018-12-22T14:57:34.103Z,100.00
2018-12-22T14:58:40.422Z,100.00
2018-12-22T14:59:46.818Z,100.00
2018-12-22T15:00:53.170Z,100.00
2018-12-22T15:01:59.474Z,100.00
2018-12-22T15:03:05.786Z,100.00
2018-12-22T15:04:12.125Z,100.00
2018-12-22T15:05:18.593Z,100.00
2018-12-22T15:06:24.953Z,100.00